Impacts TAF Board
For situational awareness. Not to be used for flight planning purposes.
IDs:

KGEG - Spokane Intl, WA, US

Issued at 1215 UTC 25 Nov 2020
Updated at 1321 UTC 25 Nov 2020
Potential Impact None Slight Moderate High
Time1253Z 25/14Z 25/15Z 25/16Z 25/17Z 25/18Z 25/19Z 25/20Z 25/21Z 25/22Z 25/23Z 26/00Z 26/01Z 26/02Z>>
Type OBS PRVL PRVL PRVL PRVL PRVL PRVL PRVL PRVL PRVL PRVL PRVL PRVL PRVL
VIS 10 >6 >6 >6 >6 >6 >6 >6 >6 >6 >6 >6 >6 >6
CIG 6 6 6 10 -- -- -- -- -- -- -- -- -- --
Cover OVC OVC OVC BKN SCT SCT SCT SCT SCT SCT SCT SCT SCT SCT
FltCat IFR IFR IFR MVFR VFR VFR VFR VFR VFR VFR VFR VFR VFR VFR
WX -- -- -- -- -- -- -- -- -- -- -- -- -- --
WDir 240 240 240 210 210 210 210 210 210 210 220 220 220 220
WSpd 14 15 15 12 13 13 13 13 13 13 7 7 7 7
WGst -- -- -- -- -- -- -- -- -- -- -- -- -- --
Raw TAF
KGEG 251215Z 2512/2612 24015KT P6SM BKN006 OVC014
  FM251600 21012KT P6SM BKN010
  FM251700 21013KT P6SM FEW010 SCT070
  FM252300 22007KT P6SM SCT100
  FM260900 20007KT P6SM BKN009
  FM261100 20006KT 4SM BR BKN008


Raw METAR
KGEG 251253Z 24014KT 10SM BKN006 OVC013 01/M01 A2982 RMK AO2 SLP112 T00111006
KGEG 251153Z 24015KT 10SM BKN006 OVC014 02/00 A2980 RMK AO2 SLP106 60003 70003 T00220000 10039 20022 53016
KGEG 251130Z 24019G23KT 10SM BKN006 OVC014 03/01 A2980 RMK AO2 T00280006
KGEG 251053Z 23015KT 10SM FEW005 FEW013 OVC065 03/01 A2978 RMK AO2 RAE45 SLP098 P0000 T00280011

METAR Board
Radar Display
Forecast Discussion
For situational awareness. Not to be used for flight planning purposes.